createdAt,value
2022-12-07T00:00:08.187Z,25.12
2022-12-07T00:02:34.659Z,24.30
2022-12-07T00:05:01.259Z,23.67
2022-12-07T00:07:28.078Z,24.31
2022-12-07T00:09:54.488Z,24.55
2022-12-07T00:12:20.991Z,25.03
2022-12-07T00:14:49.720Z,25.58
2022-12-07T00:17:18.542Z,25.03
2022-12-07T00:19:45.242Z,25.13
2022-12-07T00:22:11.652Z,23.90
2022-12-07T00:24:43.346Z,24.13
2022-12-07T00:27:09.954Z,24.02
2022-12-07T00:29:36.331Z,24.17
2022-12-07T00:32:03.043Z,22.88
2022-12-07T00:34:29.494Z,21.90
2022-12-07T00:36:55.879Z,23.28
2022-12-07T00:39:22.336Z,22.01
2022-12-07T00:41:48.771Z,21.01
2022-12-07T00:44:15.635Z,21.15
2022-12-07T00:46:42.682Z,21.14
2022-12-07T00:49:09.409Z,21.85
2022-12-07T00:51:35.997Z,21.68
2022-12-07T00:54:02.495Z,21.62
2022-12-07T00:56:28.993Z,21.42
2022-12-07T00:58:56.447Z,21.25
2022-12-07T01:01:23.008Z,20.86
2022-12-07T01:03:49.675Z,21.47
2022-12-07T01:06:18.316Z,20.32
2022-12-07T01:08:44.862Z,20.60
2022-12-07T01:11:11.559Z,20.01
2022-12-07T01:13:40.326Z,20.02
2022-12-07T01:16:06.777Z,20.37
2022-12-07T01:18:33.179Z,19.78
2022-12-07T01:20:59.650Z,19.95
2022-12-07T01:23:26.065Z,20.07
2022-12-07T01:25:52.492Z,19.81
2022-12-07T01:28:20.901Z,18.98
2022-12-07T01:30:47.410Z,19.04
2022-12-07T01:33:16.267Z,18.77
2022-12-07T01:35:42.638Z,18.50
2022-12-07T01:38:11.186Z,18.76
2022-12-07T01:40:37.525Z,18.81
2022-12-07T01:43:06.254Z,18.45
2022-12-07T01:45:32.976Z,19.30
2022-12-07T01:47:59.847Z,19.55
2022-12-07T01:50:28.059Z,19.00
2022-12-07T01:52:54.552Z,19.00
2022-12-07T01:55:21.033Z,19.42
2022-12-07T01:57:47.780Z,18.56
2022-12-07T02:00:14.907Z,19.59
2022-12-07T02:02:41.388Z,19.42
2022-12-07T02:05:07.758Z,19.05
2022-12-07T02:07:34.138Z,18.36
2022-12-07T02:10:00.788Z,17.54
2022-12-07T02:12:28.511Z,17.75
2022-12-07T02:14:55.250Z,18.00
2022-12-07T02:17:21.684Z,17.33
2022-12-07T02:19:49.082Z,17.38
2022-12-07T02:22:17.549Z,16.90
2022-12-07T02:24:44.162Z,17.10
2022-12-07T02:27:10.554Z,18.13
2022-12-07T02:29:37.141Z,17.40
2022-12-07T02:32:03.594Z,18.25
2022-12-07T02:34:32.492Z,18.09
2022-12-07T02:37:01.351Z,18.47
2022-12-07T02:39:27.709Z,17.88
2022-12-07T02:41:54.276Z,18.48
2022-12-07T02:44:20.676Z,18.14
2022-12-07T02:46:47.056Z,18.76
2022-12-07T02:49:13.650Z,18.94
2022-12-07T02:51:40.279Z,19.28
2022-12-07T02:54:06.729Z,18.69
2022-12-07T02:56:33.210Z,18.76
2022-12-07T02:58:59.550Z,18.74
2022-12-07T03:01:26.009Z,18.80
2022-12-07T03:03:52.619Z,18.85
2022-12-07T03:06:19.241Z,18.32
2022-12-07T03:08:45.784Z,18.71
2022-12-07T03:11:18.953Z,18.85
2022-12-07T03:13:48.305Z,18.25
2022-12-07T03:16:15.468Z,18.91
2022-12-07T03:18:41.942Z,18.85
2022-12-07T03:21:08.355Z,18.93
2022-12-07T03:23:34.712Z,17.98
2022-12-07T03:26:01.223Z,18.49
2022-12-07T03:28:27.733Z,18.66
2022-12-07T03:30:54.115Z,17.79
2022-12-07T03:33:20.651Z,18.71
2022-12-07T03:35:47.036Z,19.47
2022-12-07T03:38:13.420Z,19.31
2022-12-07T03:40:39.813Z,18.52
2022-12-07T03:43:06.404Z,18.54
2022-12-07T03:45:35.679Z,18.31
2022-12-07T03:48:02.226Z,19.57
2022-12-07T03:50:28.619Z,19.47
2022-12-07T03:52:55.285Z,19.29
2022-12-07T03:55:22.094Z,19.92
2022-12-07T03:57:48.613Z,19.68
2022-12-07T04:00:16.031Z,18.98
2022-12-07T04:02:42.953Z,19.54
2022-12-07T04:05:10.420Z,18.81
2022-12-07T04:07:37.389Z,18.75
2022-12-07T04:10:04.115Z,19.46
2022-12-07T04:12:30.622Z,19.14
2022-12-07T04:14:57.922Z,19.50
2022-12-07T04:17:24.551Z,18.97
2022-12-07T04:19:50.907Z,18.99
2022-12-07T04:22:17.240Z,18.47
2022-12-07T04:24:44.053Z,18.31
2022-12-07T04:27:10.830Z,17.97
2022-12-07T04:29:37.208Z,17.05
2022-12-07T04:32:03.727Z,17.77
2022-12-07T04:34:30.229Z,17.27
2022-12-07T04:36:56.810Z,16.95
2022-12-07T04:39:23.266Z,16.30
2022-12-07T04:41:49.767Z,16.25
2022-12-07T04:44:16.546Z,16.69
2022-12-07T04:46:42.960Z,16.94
2022-12-07T04:49:09.566Z,17.08
2022-12-07T04:51:35.989Z,16.80
2022-12-07T04:54:03.915Z,16.25
2022-12-07T04:56:30.286Z,16.79
2022-12-07T04:58:56.826Z,17.27
2022-12-07T05:01:23.306Z,18.02
2022-12-07T05:03:49.734Z,18.03
2022-12-07T05:06:16.175Z,18.02
2022-12-07T05:08:44.961Z,18.12
2022-12-07T05:11:11.447Z,18.34
2022-12-07T05:13:37.849Z,19.40
2022-12-07T05:16:04.654Z,19.21
2022-12-07T05:18:33.385Z,20.32
2022-12-07T05:20:59.862Z,20.41
2022-12-07T05:23:26.254Z,21.42
2022-12-07T05:25:52.807Z,21.17
2022-12-07T05:28:19.940Z,21.71
2022-12-07T05:30:46.510Z,20.31
2022-12-07T05:33:13.955Z,19.74
2022-12-07T05:35:40.463Z,20.04
2022-12-07T05:38:06.899Z,20.50
2022-12-07T05:40:35.645Z,19.96
2022-12-07T05:43:04.955Z,20.12
2022-12-07T05:45:31.657Z,19.72
2022-12-07T05:47:58.694Z,19.30
2022-12-07T05:50:25.146Z,19.23
2022-12-07T05:52:52.150Z,18.89
2022-12-07T05:55:19.002Z,17.89
2022-12-07T05:57:45.419Z,17.37
2022-12-07T06:00:11.790Z,17.30
2022-12-07T06:02:38.942Z,17.42
2022-12-07T06:05:05.616Z,16.87
2022-12-07T06:07:32.050Z,16.49
2022-12-07T06:09:58.627Z,16.62
2022-12-07T06:12:25.193Z,16.45
2022-12-07T06:14:51.710Z,15.85
2022-12-07T06:17:18.372Z,15.91
2022-12-07T06:19:45.923Z,16.25
2022-12-07T06:22:12.309Z,15.66
2022-12-07T06:24:38.690Z,15.97
2022-12-07T06:27:05.096Z,15.67
2022-12-07T06:29:32.471Z,15.30
2022-12-07T06:31:58.990Z,14.82
2022-12-07T06:34:25.395Z,15.37
2022-12-07T06:36:51.779Z,15.82
2022-12-07T06:39:18.115Z,16.02
2022-12-07T06:41:44.497Z,15.56
2022-12-07T06:44:10.961Z,15.88
2022-12-07T06:46:37.301Z,15.56
2022-12-07T06:49:11.339Z,15.88
2022-12-07T06:51:37.716Z,16.01
2022-12-07T06:54:04.088Z,15.66
2022-12-07T06:56:30.450Z,15.68
2022-12-07T06:58:56.826Z,16.01
2022-12-07T07:01:24.170Z,15.72
2022-12-07T07:03:50.968Z,15.34
2022-12-07T07:06:17.295Z,15.47
2022-12-07T07:08:43.681Z,15.83
2022-12-07T07:11:13.270Z,14.86
2022-12-07T07:13:39.764Z,14.88
2022-12-07T07:16:06.147Z,15.28
2022-12-07T07:18:32.716Z,14.65
2022-12-07T07:20:59.106Z,13.78
2022-12-07T07:23:25.903Z,13.48
2022-12-07T07:25:52.417Z,13.95
2022-12-07T07:28:19.012Z,13.12
2022-12-07T07:30:45.484Z,12.91
2022-12-07T07:33:12.037Z,13.57
2022-12-07T07:35:38.417Z,13.60
2022-12-07T07:38:04.755Z,13.49
2022-12-07T07:40:31.083Z,13.23
2022-12-07T07:42:57.515Z,13.70
2022-12-07T07:45:23.905Z,14.37
2022-12-07T07:47:50.351Z,14.29
2022-12-07T07:50:16.691Z,13.98
2022-12-07T07:52:43.072Z,14.80
2022-12-07T07:55:09.522Z,15.06
2022-12-07T07:57:36.000Z,14.38
2022-12-07T08:00:07.990Z,14.32
2022-12-07T08:02:34.414Z,15.17
2022-12-07T08:05:00.867Z,15.96
2022-12-07T08:07:27.388Z,14.97
2022-12-07T08:09:54.039Z,14.95
2022-12-07T08:12:20.466Z,14.67
2022-12-07T08:14:47.009Z,14.61
2022-12-07T08:17:14.146Z,14.28
2022-12-07T08:19:40.527Z,14.05
2022-12-07T08:22:06.867Z,14.17
2022-12-07T08:24:33.326Z,13.80
2022-12-07T08:27:00.038Z,13.90
2022-12-07T08:29:26.936Z,14.13
2022-12-07T08:31:53.302Z,13.52
2022-12-07T08:34:19.640Z,13.22
2022-12-07T08:36:45.982Z,12.67
2022-12-07T08:41:58.799Z,12.43
2022-12-07T08:44:25.483Z,11.89
2022-12-07T08:46:51.961Z,11.70
2022-12-07T08:49:18.413Z,11.57
2022-12-07T08:51:47.176Z,12.40
2022-12-07T08:54:13.790Z,12.58
2022-12-07T08:56:40.422Z,12.21
2022-12-07T08:59:09.122Z,12.48
2022-12-07T09:01:35.537Z,13.16
2022-12-07T09:04:03.347Z,12.60
2022-12-07T09:06:29.837Z,13.20
2022-12-07T09:08:56.283Z,13.56
2022-12-07T09:11:28.321Z,14.45
2022-12-07T09:13:55.195Z,13.98
2022-12-07T09:16:21.713Z,14.33
2022-12-07T09:18:48.230Z,14.26
2022-12-07T09:21:16.617Z,15.57
2022-12-07T09:23:43.090Z,16.02
2022-12-07T09:26:10.987Z,16.10
2022-12-07T09:28:37.608Z,15.67
2022-12-07T09:33:50.483Z,16.85
2022-12-07T09:36:19.305Z,17.40
2022-12-07T09:38:45.669Z,18.44
2022-12-07T09:41:13.339Z,19.22
2022-12-07T09:43:39.979Z,20.14
2022-12-07T09:46:09.605Z,20.12
2022-12-07T09:48:37.060Z,20.17
2022-12-07T09:51:03.407Z,20.72
2022-12-07T09:53:29.788Z,21.14
2022-12-07T09:55:56.168Z,21.90
2022-12-07T09:58:22.705Z,22.37
2022-12-07T10:00:49.031Z,22.26
2022-12-07T10:03:15.522Z,22.39
2022-12-07T10:05:41.883Z,22.69
2022-12-07T10:08:08.544Z,22.28
2022-12-07T10:10:38.430Z,22.30
2022-12-07T10:13:06.168Z,22.97
2022-12-07T10:15:33.536Z,23.29
2022-12-07T10:18:00.078Z,23.06
2022-12-07T10:20:26.629Z,23.11
2022-12-07T10:22:53.018Z,24.33
2022-12-07T10:25:19.397Z,23.94
2022-12-07T10:27:47.941Z,24.59
2022-12-07T10:30:14.292Z,24.91
2022-12-07T10:32:40.626Z,25.73
2022-12-07T10:35:07.610Z,25.26
2022-12-07T10:37:34.147Z,23.79
2022-12-07T10:40:03.013Z,25.61
2022-12-07T10:42:31.649Z,24.90
2022-12-07T10:44:58.083Z,25.64
2022-12-07T10:47:24.981Z,24.06
2022-12-07T10:49:51.386Z,23.97
2022-12-07T10:52:17.904Z,24.35
2022-12-07T10:54:44.634Z,24.10
2022-12-07T10:57:11.330Z,23.77
2022-12-07T10:59:40.056Z,23.11
2022-12-07T11:02:06.653Z,23.35
2022-12-07T11:04:33.047Z,23.27
2022-12-07T11:06:59.754Z,23.84
2022-12-07T11:09:51.930Z,23.56
2022-12-07T11:12:12.700Z,22.51
2022-12-07T11:14:39.109Z,22.84
2022-12-07T11:17:06.396Z,22.37
2022-12-07T11:19:32.883Z,22.33
2022-12-07T11:21:59.306Z,24.00
2022-12-07T11:24:25.784Z,22.08
2022-12-07T11:26:52.155Z,21.64
2022-12-07T11:29:18.495Z,21.22
2022-12-07T11:31:45.971Z,21.45
2022-12-07T11:34:12.411Z,20.75
2022-12-07T11:36:39.259Z,20.85
2022-12-07T11:39:05.616Z,20.81
2022-12-07T11:41:32.194Z,20.22
2022-12-07T11:43:58.869Z,20.13
2022-12-07T11:46:25.497Z,20.53
2022-12-07T11:48:52.052Z,20.50
2022-12-07T11:51:18.646Z,20.05
2022-12-07T11:53:45.259Z,20.51
2022-12-07T11:56:11.878Z,20.18
2022-12-07T11:58:45.640Z,19.55
2022-12-07T12:01:12.021Z,19.85
2022-12-07T12:03:38.442Z,19.65
2022-12-07T12:06:05.340Z,19.91
2022-12-07T12:11:18.250Z,18.60
2022-12-07T12:16:31.381Z,17.96
2022-12-07T12:18:57.881Z,17.17
2022-12-07T12:21:24.293Z,15.88
2022-12-07T12:23:50.789Z,16.09
2022-12-07T12:26:19.765Z,15.33
2022-12-07T12:28:50.202Z,16.44
2022-12-07T12:31:16.979Z,16.08
2022-12-07T12:33:44.055Z,16.80
2022-12-07T12:36:10.640Z,15.47
2022-12-07T12:38:37.139Z,15.24
2022-12-07T12:41:04.517Z,15.73
2022-12-07T12:43:33.403Z,15.47
2022-12-07T12:46:02.100Z,15.21
2022-12-07T12:48:28.961Z,15.86
2022-12-07T12:50:55.443Z,15.56
2022-12-07T12:53:21.905Z,15.62
2022-12-07T12:55:48.259Z,14.79
2022-12-07T12:58:15.031Z,14.68
2022-12-07T13:00:41.731Z,14.21
2022-12-07T13:03:13.062Z,14.22
2022-12-07T13:05:39.986Z,14.07
2022-12-07T13:08:06.376Z,13.80
2022-12-07T13:10:36.226Z,13.68
2022-12-07T13:13:03.022Z,14.39
2022-12-07T13:15:29.407Z,13.44
2022-12-07T13:17:55.789Z,14.25
2022-12-07T13:20:22.983Z,13.75
2022-12-07T13:22:49.672Z,14.16
2022-12-07T13:25:17.018Z,13.90
2022-12-07T13:27:43.923Z,14.06
2022-12-07T13:30:10.440Z,14.56
2022-12-07T13:32:37.025Z,13.85
2022-12-07T13:35:04.122Z,14.36
2022-12-07T13:37:37.922Z,13.92
2022-12-07T13:40:04.749Z,13.96
2022-12-07T13:42:31.134Z,13.84
2022-12-07T13:44:57.498Z,13.74
2022-12-07T13:47:24.078Z,14.00
2022-12-07T13:49:53.870Z,13.76
2022-12-07T13:52:20.595Z,13.49
2022-12-07T13:54:47.034Z,13.77
2022-12-07T13:57:13.417Z,13.53
2022-12-07T13:59:39.800Z,12.86
2022-12-07T14:02:06.217Z,12.96
2022-12-07T14:04:32.662Z,13.84
2022-12-07T14:06:58.986Z,13.80
2022-12-07T14:09:25.363Z,13.35
2022-12-07T14:11:51.951Z,12.88
2022-12-07T14:14:18.336Z,12.93
2022-12-07T14:16:45.082Z,12.39
2022-12-07T14:19:11.473Z,12.29
2022-12-07T14:21:37.972Z,12.53
2022-12-07T14:24:04.313Z,12.57
2022-12-07T14:26:38.073Z,13.35
2022-12-07T14:29:04.463Z,13.18
2022-12-07T14:31:31.204Z,13.10
2022-12-07T14:33:57.768Z,12.53
2022-12-07T14:36:24.386Z,12.89
2022-12-07T14:38:50.755Z,12.56
2022-12-07T14:41:17.453Z,12.43
2022-12-07T14:44:00.011Z,13.20
2022-12-07T14:46:30.603Z,12.98
2022-12-07T14:54:30.243Z,13.09
2022-12-07T14:56:56.587Z,13.34
2022-12-07T14:59:23.141Z,13.23
2022-12-07T15:01:49.498Z,13.07
2022-12-07T15:04:16.209Z,13.25
2022-12-07T15:06:43.768Z,14.25
2022-12-07T15:09:10.168Z,15.31
2022-12-07T15:11:40.272Z,15.28
2022-12-07T15:14:11.042Z,17.03
2022-12-07T15:17:06.680Z,17.37
2022-12-07T15:19:28.357Z,17.43
2022-12-07T15:21:55.869Z,17.12
2022-12-07T15:24:22.260Z,17.09
2022-12-07T15:26:48.657Z,17.23
2022-12-07T15:29:21.032Z,17.54
2022-12-07T15:31:58.068Z,16.92
2022-12-07T15:34:24.963Z,18.01
2022-12-07T15:36:51.344Z,17.10
2022-12-07T15:39:18.216Z,16.81
2022-12-07T15:41:44.606Z,17.39
2022-12-07T15:44:11.238Z,18.13
2022-12-07T15:46:37.850Z,18.12
2022-12-07T15:49:04.416Z,17.39
2022-12-07T15:51:30.968Z,17.35
2022-12-07T15:53:57.572Z,16.45
2022-12-07T15:56:24.507Z,16.52
2022-12-07T15:58:51.052Z,16.78
2022-12-07T16:01:18.510Z,17.13
2022-12-07T16:03:44.896Z,16.70
2022-12-07T16:06:11.273Z,16.74
2022-12-07T16:08:38.139Z,17.08
2022-12-07T16:11:05.888Z,16.54
2022-12-07T16:13:32.250Z,15.97
2022-12-07T16:15:59.013Z,15.85
2022-12-07T16:18:25.522Z,17.16
2022-12-07T16:20:51.915Z,16.93
2022-12-07T16:23:18.400Z,16.92
2022-12-07T16:25:44.721Z,16.00
2022-12-07T16:28:11.214Z,15.90
2022-12-07T16:30:37.600Z,15.68
2022-12-07T16:33:11.360Z,15.30
2022-12-07T16:35:37.738Z,14.28
2022-12-07T16:38:04.120Z,13.85
2022-12-07T16:40:30.518Z,13.74
2022-12-07T16:42:57.186Z,13.79
2022-12-07T16:45:25.188Z,14.67
2022-12-07T16:47:51.926Z,14.56
2022-12-07T16:50:18.411Z,14.42
2022-12-07T16:52:46.610Z,13.49
2022-12-07T16:55:13.048Z,14.55
2022-12-07T16:57:41.438Z,14.87
2022-12-07T17:00:07.912Z,15.30
2022-12-07T17:02:34.251Z,15.47
2022-12-07T17:05:03.376Z,17.34
2022-12-07T17:07:29.984Z,17.57
2022-12-07T17:09:57.148Z,17.72
2022-12-07T17:12:23.696Z,18.13
2022-12-07T17:14:50.380Z,18.46
2022-12-07T17:17:16.830Z,18.50
2022-12-07T17:19:43.270Z,18.81
2022-12-07T17:22:11.909Z,18.78
2022-12-07T17:24:38.592Z,19.54
2022-12-07T17:27:04.986Z,19.76
2022-12-07T17:29:31.377Z,20.05
2022-12-07T17:31:58.246Z,19.51
2022-12-07T17:34:24.623Z,19.75
2022-12-07T17:36:54.079Z,18.79
2022-12-07T17:39:20.583Z,18.98
2022-12-07T17:41:48.208Z,18.89
2022-12-07T17:44:14.594Z,19.42
2022-12-07T17:46:42.313Z,20.24
2022-12-07T17:49:08.859Z,19.69
2022-12-07T17:51:35.197Z,20.18
2022-12-07T17:54:01.535Z,20.73
2022-12-07T17:56:30.804Z,20.41
2022-12-07T17:58:57.185Z,20.50
2022-12-07T18:01:24.256Z,21.09
2022-12-07T18:03:50.905Z,19.88
2022-12-07T18:06:17.464Z,20.86
2022-12-07T18:08:48.138Z,20.91
2022-12-07T18:11:14.483Z,20.93
2022-12-07T18:13:40.902Z,21.73
2022-12-07T18:16:07.842Z,21.81
2022-12-07T18:18:34.507Z,23.02
2022-12-07T18:21:03.321Z,22.81
2022-12-07T18:23:29.937Z,22.57
2022-12-07T18:25:56.316Z,22.43
2022-12-07T18:28:22.967Z,23.26
2022-12-07T18:31:14.206Z,21.75
2022-12-07T18:33:35.623Z,21.02
2022-12-07T18:36:01.961Z,22.11
2022-12-07T18:38:28.365Z,22.51
2022-12-07T18:40:54.720Z,22.93
2022-12-07T18:43:21.097Z,23.34
2022-12-07T18:45:51.308Z,23.70
2022-12-07T18:48:22.792Z,23.63
2022-12-07T18:50:49.182Z,23.00
2022-12-07T18:53:16.051Z,23.20
2022-12-07T18:55:42.501Z,23.35
2022-12-07T18:58:10.085Z,23.21
2022-12-07T19:00:36.767Z,22.37
2022-12-07T19:03:03.460Z,23.17
2022-12-07T19:05:30.847Z,22.30
2022-12-07T19:07:57.254Z,21.50
2022-12-07T19:10:23.886Z,22.13
2022-12-07T19:12:50.394Z,22.65
2022-12-07T19:15:17.015Z,23.14
2022-12-07T19:17:43.386Z,22.97
2022-12-07T19:20:11.786Z,22.40
2022-12-07T19:22:38.163Z,22.81
2022-12-07T19:25:04.981Z,23.09
2022-12-07T19:27:31.682Z,22.39
2022-12-07T19:29:58.638Z,22.48
2022-12-07T19:32:25.192Z,22.81
2022-12-07T19:34:51.651Z,22.34
2022-12-07T19:37:18.983Z,23.27
2022-12-07T19:39:45.337Z,22.46
2022-12-07T19:42:11.888Z,22.49
2022-12-07T19:44:38.365Z,22.19
2022-12-07T19:47:05.606Z,22.63
2022-12-07T19:49:33.144Z,21.78
2022-12-07T19:51:59.530Z,22.83
2022-12-07T19:54:26.930Z,23.12
2022-12-07T19:56:53.407Z,22.28
2022-12-07T19:59:20.775Z,21.36
2022-12-07T20:01:48.231Z,22.07
2022-12-07T20:04:14.940Z,22.25
2022-12-07T20:06:43.415Z,22.28
2022-12-07T20:09:09.875Z,21.71
2022-12-07T20:11:36.254Z,21.92
2022-12-07T20:14:02.678Z,21.39
2022-12-07T20:16:33.125Z,22.19
2022-12-07T20:18:59.624Z,22.40
2022-12-07T20:21:26.654Z,22.29
2022-12-07T20:23:53.217Z,21.80
2022-12-07T20:26:19.824Z,21.93
2022-12-07T20:28:46.315Z,21.94
2022-12-07T20:31:13.124Z,22.47
2022-12-07T20:33:40.589Z,21.06
2022-12-07T20:36:06.939Z,20.84
2022-12-07T20:38:34.071Z,21.87
2022-12-07T20:41:00.630Z,22.05
2022-12-07T20:43:26.974Z,21.65
2022-12-07T20:45:53.632Z,23.27
2022-12-07T20:48:20.476Z,22.48
2022-12-07T20:50:46.858Z,22.64
2022-12-07T20:53:14.283Z,22.74
2022-12-07T20:55:41.456Z,22.57
2022-12-07T20:58:10.660Z,23.32
2022-12-07T21:00:36.993Z,23.20
2022-12-07T21:03:03.631Z,22.65
2022-12-07T21:05:30.202Z,22.90
2022-12-07T21:07:56.831Z,22.29
2022-12-07T21:10:23.328Z,22.92
2022-12-07T21:12:54.132Z,22.54
2022-12-07T21:15:22.322Z,21.97
2022-12-07T21:17:48.778Z,22.04
2022-12-07T21:20:15.171Z,21.25
2022-12-07T21:22:41.559Z,21.71
2022-12-07T21:25:07.911Z,23.00
2022-12-07T21:27:38.598Z,21.94
2022-12-07T21:30:04.968Z,21.82
2022-12-07T21:32:31.348Z,22.13
2022-12-07T21:34:57.784Z,20.92
2022-12-07T21:37:24.258Z,21.18
2022-12-07T21:39:51.618Z,21.16
2022-12-07T21:42:17.958Z,22.53
2022-12-07T21:44:45.437Z,21.82
2022-12-07T21:47:11.844Z,21.10
2022-12-07T21:49:38.282Z,21.37
2022-12-07T21:52:04.628Z,21.66
2022-12-07T21:54:33.359Z,22.52
2022-12-07T21:56:59.749Z,23.10
2022-12-07T21:59:29.028Z,22.92
2022-12-07T22:01:55.562Z,23.24
2022-12-07T22:04:22.242Z,22.03
2022-12-07T22:06:48.808Z,21.82
2022-12-07T22:09:17.496Z,21.69
2022-12-07T22:11:44.319Z,23.02
2022-12-07T22:14:11.034Z,22.42
2022-12-07T22:16:41.836Z,22.50
2022-12-07T22:19:08.301Z,22.40
2022-12-07T22:21:35.932Z,22.66
2022-12-07T22:24:02.296Z,21.28
2022-12-07T22:26:28.764Z,21.77
2022-12-07T22:28:55.228Z,22.12
2022-12-07T22:31:21.677Z,21.61
2022-12-07T22:33:48.280Z,21.42
2022-12-07T22:36:15.305Z,23.19
2022-12-07T22:38:41.804Z,22.25
2022-12-07T22:41:08.383Z,21.44
2022-12-07T22:43:35.812Z,21.95
2022-12-07T22:46:02.368Z,21.79
2022-12-07T22:48:29.138Z,21.51
2022-12-07T22:50:55.541Z,21.76
2022-12-07T22:53:21.921Z,21.40
2022-12-07T22:55:48.495Z,21.28
2022-12-07T22:58:15.279Z,20.89
2022-12-07T23:00:41.652Z,20.71
2022-12-07T23:03:08.154Z,21.51
2022-12-07T23:05:34.602Z,21.01
2022-12-07T23:08:03.495Z,21.23
2022-12-07T23:10:29.965Z,20.83
2022-12-07T23:12:56.434Z,20.40
2022-12-07T23:15:22.824Z,20.67
2022-12-07T23:17:51.417Z,21.39
2022-12-07T23:20:18.002Z,21.54
2022-12-07T23:22:46.914Z,20.84
2022-12-07T23:25:13.770Z,20.98
2022-12-07T23:27:40.142Z,20.45
2022-12-07T23:30:07.667Z,20.51
2022-12-07T23:32:34.184Z,19.90
2022-12-07T23:35:00.680Z,20.23
2022-12-07T23:37:29.081Z,20.01
2022-12-07T23:39:55.443Z,19.81
2022-12-07T23:42:21.851Z,19.53
2022-12-07T23:44:48.191Z,18.88
2022-12-07T23:47:14.971Z,18.63
2022-12-07T23:49:41.422Z,18.29
2022-12-07T23:52:07.980Z,17.54
2022-12-07T23:54:34.558Z,17.57
2022-12-07T23:57:02.101Z,16.70
2022-12-07T23:59:31.690Z,17.53
